sensor_id;sensor_type;location;lat;lon;timestamp;pressure;altitude;pressure_sealevel;temperature;humidity
72798;BME280;61084;55.816;37.036;2023-03-20T00:00:34;99993.81;;;-1.34;53.28
72798;BME280;61084;55.816;37.036;2023-03-20T00:03:01;100004.97;;;-1.38;53.09
72798;BME280;61084;55.816;37.036;2023-03-20T00:05:28;100004.94;;;-1.43;53.07
72798;BME280;61084;55.816;37.036;2023-03-20T00:07:55;100010.94;;;-1.45;53.31
72798;BME280;61084;55.816;37.036;2023-03-20T00:10:26;100007.50;;;-1.47;53.34
72798;BME280;61084;55.816;37.036;2023-03-20T00:12:55;100000.63;;;-1.52;53.30
72798;BME280;61084;55.816;37.036;2023-03-20T00:15:36;100001.47;;;-1.51;53.44
72798;BME280;61084;55.816;37.036;2023-03-20T00:18:10;100004.91;;;-1.55;53.56
72798;BME280;61084;55.816;37.036;2023-03-20T00:20:38;99998.03;;;-1.58;53.47
72798;BME280;61084;55.816;37.036;2023-03-20T00:23:03;100000.59;;;-1.58;53.52
72798;BME280;61084;55.816;37.036;2023-03-20T00:25:29;99998.03;;;-1.58;53.62
72798;BME280;61084;55.816;37.036;2023-03-20T00:27:56;99995.44;;;-1.59;53.81
72798;BME280;61084;55.816;37.036;2023-03-20T00:30:32;99991.13;;;-1.60;53.82
72798;BME280;61084;55.816;37.036;2023-03-20T00:32:58;99993.72;;;-1.60;53.79
72798;BME280;61084;55.816;37.036;2023-03-20T00:35:28;99993.69;;;-1.63;53.74
72798;BME280;61084;55.816;37.036;2023-03-20T00:37:56;99997.13;;;-1.66;53.88
72798;BME280;61084;55.816;37.036;2023-03-20T00:40:29;99997.97;;;-1.67;53.98
72798;BME280;61084;55.816;37.036;2023-03-20T00:43:01;100002.25;;;-1.69;53.89
72798;BME280;61084;55.816;37.036;2023-03-20T00:45:29;99993.63;;;-1.74;53.87
72798;BME280;61084;55.816;37.036;2023-03-20T00:47:56;99991.94;;;-1.76;54.00
72798;BME280;61084;55.816;37.036;2023-03-20T00:50:28;99985.91;;;-1.77;53.98
72798;BME280;61084;55.816;37.036;2023-03-20T00:52:56;99991.03;;;-1.78;54.17
72798;BME280;61084;55.816;37.036;2023-03-20T00:55:24;99989.31;;;-1.81;54.24
72798;BME280;61084;55.816;37.036;2023-03-20T00:57:58;99984.16;;;-1.84;54.04
72798;BME280;61084;55.816;37.036;2023-03-20T01:00:43;99994.44;;;-1.85;54.17
72798;BME280;61084;55.816;37.036;2023-03-20T01:03:21;99988.41;;;-1.89;54.29
72798;BME280;61084;55.816;37.036;2023-03-20T01:05:49;99978.94;;;-1.91;54.40
72798;BME280;61084;55.816;37.036;2023-03-20T01:08:19;99985.81;;;-1.92;54.53
72798;BME280;61084;55.816;37.036;2023-03-20T01:10:48;99987.53;;;-1.94;54.38
72798;BME280;61084;55.816;37.036;2023-03-20T01:13:26;99978.94;;;-1.96;54.42
72798;BME280;61084;55.816;37.036;2023-03-20T01:15:54;99976.34;;;-1.97;54.50
72798;BME280;61084;55.816;37.036;2023-03-20T01:18:23;99972.91;;;-1.99;54.01
72798;BME280;61084;55.816;37.036;2023-03-20T01:20:49;99972.03;;;-2.01;54.55
72798;BME280;61084;55.816;37.036;2023-03-20T01:23:18;99966.91;;;-2.03;54.63
72798;BME280;61084;55.816;37.036;2023-03-20T01:25:45;99966.91;;;-2.03;54.71
72798;BME280;61084;55.816;37.036;2023-03-20T01:28:18;99966.03;;;-2.02;54.77
72798;BME280;61084;55.816;37.036;2023-03-20T01:30:44;99965.19;;;-2.02;54.91
72798;BME280;61084;55.816;37.036;2023-03-20T01:33:16;99966.91;;;-2.03;54.75
72798;BME280;61084;55.816;37.036;2023-03-20T01:35:46;99959.16;;;-2.04;54.82
72798;BME280;61084;55.816;37.036;2023-03-20T01:38:23;99964.28;;;-2.04;54.93
72798;BME280;61084;55.816;37.036;2023-03-20T01:41:02;99965.16;;;-2.04;55.12
72798;BME280;61084;55.816;37.036;2023-03-20T01:43:33;99963.44;;;-2.02;54.89
72798;BME280;61084;55.816;37.036;2023-03-20T01:46:03;99947.19;;;-2.01;55.26
72798;BME280;61084;55.816;37.036;2023-03-20T01:51:22;99946.31;;;-2.01;55.27
72798;BME280;61084;55.816;37.036;2023-03-20T01:54:12;99943.75;;;-2.03;55.48
72798;BME280;61084;55.816;37.036;2023-03-20T01:56:58;99940.31;;;-2.05;55.27
72798;BME280;61084;55.816;37.036;2023-03-20T01:59:35;99940.28;;;-2.06;55.17
72798;BME280;61084;55.816;37.036;2023-03-20T02:02:04;99949.72;;;-2.07;55.36
72798;BME280;61084;55.816;37.036;2023-03-20T02:04:40;99952.31;;;-2.07;55.68
72798;BME280;61084;55.816;37.036;2023-03-20T02:07:15;99953.13;;;-2.09;55.58
72798;BME280;61084;55.816;37.036;2023-03-20T02:10:08;99945.38;;;-2.11;55.82
72798;BME280;61084;55.816;37.036;2023-03-20T02:12:53;99943.69;;;-2.10;55.93
72798;BME280;61084;55.816;37.036;2023-03-20T02:15:29;99941.16;;;-2.09;55.66
72798;BME280;61084;55.816;37.036;2023-03-20T02:18:16;99942.84;;;-2.08;55.87
72798;BME280;61084;55.816;37.036;2023-03-20T02:29:10;99929.13;;;-2.10;55.91
72798;BME280;61084;55.816;37.036;2023-03-20T02:32:07;99930.00;;;-2.09;56.15
72798;BME280;61084;55.816;37.036;2023-03-20T02:40:42;99925.72;;;-2.06;56.07
72798;BME280;61084;55.816;37.036;2023-03-20T02:48:46;99916.31;;;-2.05;56.11
72798;BME280;61084;55.816;37.036;2023-03-20T02:51:34;99912.00;;;-2.08;56.36
72798;BME280;61084;55.816;37.036;2023-03-20T02:54:17;99910.28;;;-2.09;56.34
72798;BME280;61084;55.816;37.036;2023-03-20T02:57:05;99912.84;;;-2.12;56.75
72798;BME280;61084;55.816;37.036;2023-03-20T02:59:39;99912.84;;;-2.13;56.60
72798;BME280;61084;55.816;37.036;2023-03-20T03:02:09;99909.41;;;-2.14;56.56
72798;BME280;61084;55.816;37.036;2023-03-20T03:05:00;99907.66;;;-2.16;56.64
72798;BME280;61084;55.816;37.036;2023-03-20T03:07:31;99911.09;;;-2.16;56.64
72798;BME280;61084;55.816;37.036;2023-03-20T03:10:05;99905.94;;;-2.17;56.92
72798;BME280;61084;55.816;37.036;2023-03-20T03:12:34;99916.25;;;-2.14;56.75
72798;BME280;61084;55.816;37.036;2023-03-20T03:15:05;99903.38;;;-2.16;56.61
72798;BME280;61084;55.816;37.036;2023-03-20T03:17:36;99908.53;;;-2.16;56.57
72798;BME280;61084;55.816;37.036;2023-03-20T03:20:15;99898.22;;;-2.17;56.30
72798;BME280;61084;55.816;37.036;2023-03-20T03:22:45;99899.09;;;-2.18;56.32
72798;BME280;61084;55.816;37.036;2023-03-20T03:25:11;99904.19;;;-2.21;56.42
72798;BME280;61084;55.816;37.036;2023-03-20T03:27:47;99901.63;;;-2.24;56.55
72798;BME280;61084;55.816;37.036;2023-03-20T03:30:24;99897.31;;;-2.27;56.45
72798;BME280;61084;55.816;37.036;2023-03-20T03:35:28;99890.44;;;-2.31;56.48
72798;BME280;61084;55.816;37.036;2023-03-20T03:43:02;99881.84;;;-2.35;56.85
72798;BME280;61084;55.816;37.036;2023-03-20T03:45:33;99873.28;;;-2.35;56.46
72798;BME280;61084;55.816;37.036;2023-03-20T03:48:31;99867.28;;;-2.36;56.53
72798;BME280;61084;55.816;37.036;2023-03-20T03:51:08;99871.56;;;-2.36;56.54
72798;BME280;61084;55.816;37.036;2023-03-20T03:53:50;99871.56;;;-2.36;56.42
72798;BME280;61084;55.816;37.036;2023-03-20T03:56:20;99866.41;;;-2.35;56.57
72798;BME280;61084;55.816;37.036;2023-03-20T03:58:51;99869.84;;;-2.34;56.44
72798;BME280;61084;55.816;37.036;2023-03-20T04:01:19;99864.72;;;-2.34;56.64
72798;BME280;61084;55.816;37.036;2023-03-20T04:03:51;99863.00;;;-2.34;56.88
72798;BME280;61084;55.816;37.036;2023-03-20T04:06:19;99868.16;;;-2.32;56.76
72798;BME280;61084;55.816;37.036;2023-03-20T04:08:45;99869.06;;;-2.28;56.59
72798;BME280;61084;55.816;37.036;2023-03-20T04:11:16;99868.19;;;-2.29;56.51
72798;BME280;61084;55.816;37.036;2023-03-20T04:13:45;99862.16;;;-2.28;56.89
72798;BME280;61084;55.816;37.036;2023-03-20T04:16:14;99871.63;;;-2.25;57.09
72798;BME280;61084;55.816;37.036;2023-03-20T04:18:42;99865.63;;;-2.26;57.09
72798;BME280;61084;55.816;37.036;2023-03-20T04:21:12;99864.78;;;-2.26;57.34
72798;BME280;61084;55.816;37.036;2023-03-20T04:23:38;99862.19;;;-2.26;57.09
72798;BME280;61084;55.816;37.036;2023-03-20T04:26:04;99863.94;;;-2.22;57.23
72798;BME280;61084;55.816;37.036;2023-03-20T04:28:33;99854.50;;;-2.25;57.28
72798;BME280;61084;55.816;37.036;2023-03-20T04:31:22;99865.66;;;-2.20;57.13
72798;BME280;61084;55.816;37.036;2023-03-20T04:34:04;99863.13;;;-2.14;56.89
72798;BME280;61084;55.816;37.036;2023-03-20T04:36:53;99857.13;;;-2.11;57.22
72798;BME280;61084;55.816;37.036;2023-03-20T04:39:22;99862.28;;;-2.10;56.83
72798;BME280;61084;55.816;37.036;2023-03-20T04:41:48;99852.03;;;-2.07;57.24
72798;BME280;61084;55.816;37.036;2023-03-20T04:44:15;99849.44;;;-2.07;56.94
72798;BME280;61084;55.816;37.036;2023-03-20T04:46:43;99853.72;;;-2.04;57.00
72798;BME280;61084;55.816;37.036;2023-03-20T04:49:14;99842.59;;;-2.02;57.18
72798;BME280;61084;55.816;37.036;2023-03-20T04:51:41;99849.47;;;-1.98;57.43
72798;BME280;61084;55.816;37.036;2023-03-20T04:54:07;99848.66;;;-1.94;57.06
72798;BME280;61084;55.816;37.036;2023-03-20T04:56:33;99846.94;;;-1.89;56.95
72798;BME280;61084;55.816;37.036;2023-03-20T04:59:19;99857.28;;;-1.81;56.88
72798;BME280;61084;55.816;37.036;2023-03-20T05:01:45;99857.28;;;-1.74;56.48
72798;BME280;61084;55.816;37.036;2023-03-20T05:04:11;99854.75;;;-1.65;56.85
72798;BME280;61084;55.816;37.036;2023-03-20T05:06:37;99858.19;;;-1.52;56.49
72798;BME280;61084;55.816;37.036;2023-03-20T05:09:03;99859.09;;;-1.41;56.59
72798;BME280;61084;55.816;37.036;2023-03-20T05:11:30;99860.84;;;-1.28;56.20
72798;BME280;61084;55.816;37.036;2023-03-20T05:14:35;99862.56;;;-1.19;56.31
72798;BME280;61084;55.816;37.036;2023-03-20T05:17:22;99865.16;;;-1.13;56.28
72798;BME280;61084;55.816;37.036;2023-03-20T05:20:07;99873.75;;;-1.04;56.20
72798;BME280;61084;55.816;37.036;2023-03-20T05:22:40;99872.91;;;-0.97;56.21
72798;BME280;61084;55.816;37.036;2023-03-20T05:25:28;99880.59;;;-0.89;55.94
72798;BME280;61084;55.816;37.036;2023-03-20T05:28:12;99883.19;;;-0.86;55.59
72798;BME280;61084;55.816;37.036;2023-03-20T05:30:57;99873.75;;;-0.81;55.70
72798;BME280;61084;55.816;37.036;2023-03-20T05:33:46;99874.63;;;-0.74;55.59
72798;BME280;61084;55.816;37.036;2023-03-20T05:36:23;99874.63;;;-0.68;55.82
72798;BME280;61084;55.816;37.036;2023-03-20T05:39:12;99865.16;;;-0.63;55.58
72798;BME280;61084;55.816;37.036;2023-03-20T05:41:52;99869.44;;;-0.58;55.52
72798;BME280;61084;55.816;37.036;2023-03-20T05:44:40;99867.72;;;-0.53;55.29
72798;BME280;61084;55.816;37.036;2023-03-20T05:47:24;99869.44;;;-0.46;55.02
72798;BME280;61084;55.816;37.036;2023-03-20T05:49:56;99868.56;;;-0.34;54.93
72798;BME280;61084;55.816;37.036;2023-03-20T05:52:34;99863.38;;;-0.18;54.74
72798;BME280;61084;55.816;37.036;2023-03-20T05:55:14;99865.03;;;0.00;54.52
72798;BME280;61084;55.816;37.036;2023-03-20T06:00:58;99867.50;;;0.32;53.83
72798;BME280;61084;55.816;37.036;2023-03-20T06:03:41;99857.94;;;0.47;53.43
72798;BME280;61084;55.816;37.036;2023-03-20T06:06:14;99861.31;;;0.63;53.37
72798;BME280;61084;55.816;37.036;2023-03-20T06:08:40;99858.63;;;0.78;53.47
72798;BME280;61084;55.816;37.036;2023-03-20T06:11:07;99861.97;;;0.95;53.65
72798;BME280;61084;55.816;37.036;2023-03-20T06:13:36;99859.25;;;1.12;53.45
72798;BME280;61084;55.816;37.036;2023-03-20T06:16:03;99856.56;;;1.22;53.01
72798;BME280;61084;55.816;37.036;2023-03-20T06:18:30;99859.84;;;1.39;53.37
72798;BME280;61084;55.816;37.036;2023-03-20T06:20:57;99865.84;;;1.47;52.48
72798;BME280;61084;55.816;37.036;2023-03-20T06:23:25;99859.75;;;1.53;52.25
72798;BME280;61084;55.816;37.036;2023-03-20T06:25:51;99857.94;;;1.60;52.23
72798;BME280;61084;55.816;37.036;2023-03-20T06:28:19;99853.63;;;1.62;52.04
72798;BME280;61084;55.816;37.036;2023-03-20T06:30:45;99856.19;;;1.65;52.09
72798;BME280;61084;55.816;37.036;2023-03-20T06:33:17;99853.53;;;1.71;52.08
72798;BME280;61084;55.816;37.036;2023-03-20T06:35:57;99849.13;;;1.79;52.28
72798;BME280;61084;55.816;37.036;2023-03-20T06:38:24;99846.41;;;1.89;52.02
72798;BME280;61084;55.816;37.036;2023-03-20T06:40:51;99848.88;;;2.01;52.05
72798;BME280;61084;55.816;37.036;2023-03-20T06:43:17;99842.72;;;2.13;52.24
72798;BME280;61084;55.816;37.036;2023-03-20T06:45:50;99839.09;;;2.26;51.97
72798;BME280;61084;55.816;37.036;2023-03-20T06:48:20;99839.81;;;2.36;51.73
72798;BME280;61084;55.816;37.036;2023-03-20T06:50:48;99836.25;;;2.46;51.78
72798;BME280;61084;55.816;37.036;2023-03-20T06:53:17;99839.59;;;2.54;51.73
72798;BME280;61084;55.816;37.036;2023-03-20T06:55:50;99837.78;;;2.60;51.51
72798;BME280;61084;55.816;37.036;2023-03-20T06:58:16;99844.53;;;2.70;51.26
72798;BME280;61084;55.816;37.036;2023-03-20T07:00:42;99835.75;;;2.79;51.32
72798;BME280;61084;55.816;37.036;2023-03-20T07:03:09;99829.50;;;2.92;51.09
72798;BME280;61084;55.816;37.036;2023-03-20T07:05:36;99836.28;;;3.00;51.30
72798;BME280;61084;55.816;37.036;2023-03-20T07:08:06;99833.44;;;3.16;50.69
72798;BME280;61084;55.816;37.036;2023-03-20T07:10:33;99831.50;;;3.30;50.99
72798;BME280;61084;55.816;37.036;2023-03-20T07:12:59;99828.69;;;3.42;50.44
72798;BME280;61084;55.816;37.036;2023-03-20T07:15:26;99818.06;;;3.55;50.13
72798;BME280;61084;55.816;37.036;2023-03-20T07:17:54;99822.94;;;3.73;49.97
72798;BME280;61084;55.816;37.036;2023-03-20T07:20:20;99822.59;;;3.90;49.94
72798;BME280;61084;55.816;37.036;2023-03-20T07:22:48;99816.25;;;4.05;49.91
72798;BME280;61084;55.816;37.036;2023-03-20T07:25:17;99822.81;;;4.22;49.15
72798;BME280;61084;55.816;37.036;2023-03-20T07:27:43;99814.63;;;4.40;49.21
72798;BME280;61084;55.816;37.036;2023-03-20T07:30:16;99813.38;;;4.58;48.08
72798;BME280;61084;55.816;37.036;2023-03-20T07:32:44;99814.00;;;4.69;47.50
72798;BME280;61084;55.816;37.036;2023-03-20T07:35:11;99811.03;;;4.84;48.41
72798;BME280;61084;55.816;37.036;2023-03-20T07:37:40;99802.88;;;4.99;47.65
72798;BME280;61084;55.816;37.036;2023-03-20T07:40:06;99805.94;;;5.16;47.96
72798;BME280;61084;55.816;37.036;2023-03-20T07:42:51;99797.69;;;5.33;47.79
72798;BME280;61084;55.816;37.036;2023-03-20T07:45:35;99799.13;;;5.45;47.53
72798;BME280;61084;55.816;37.036;2023-03-20T07:48:01;99796.06;;;5.61;46.99
72798;BME280;61084;55.816;37.036;2023-03-20T07:50:27;99796.56;;;5.75;46.89
72798;BME280;61084;55.816;37.036;2023-03-20T07:52:53;99791.91;;;5.88;46.41
72798;BME280;61084;55.816;37.036;2023-03-20T07:55:20;99789.81;;;6.00;45.67
72798;BME280;61084;55.816;37.036;2023-03-20T07:57:47;99786.88;;;6.13;45.75
72798;BME280;61084;55.816;37.036;2023-03-20T08:00:14;99790.03;;;6.22;45.24
72798;BME280;61084;55.816;37.036;2023-03-20T08:02:41;99780.28;;;6.30;44.96
72798;BME280;61084;55.816;37.036;2023-03-20T08:05:07;99786.91;;;6.40;45.40
72798;BME280;61084;55.816;37.036;2023-03-20T08:07:34;99788.31;;;6.50;45.15
72798;BME280;61084;55.816;37.036;2023-03-20T08:10:00;99786.38;;;6.57;45.35
72798;BME280;61084;55.816;37.036;2023-03-20T08:12:28;99783.63;;;6.61;44.91
72798;BME280;61084;55.816;37.036;2023-03-20T08:14:53;99783.50;;;6.66;45.48
72798;BME280;61084;55.816;37.036;2023-03-20T08:17:19;99777.25;;;6.71;45.77
72798;BME280;61084;55.816;37.036;2023-03-20T08:19:45;99775.44;;;6.73;45.96
72798;BME280;61084;55.816;37.036;2023-03-20T08:22:12;99775.25;;;6.79;45.39
72798;BME280;61084;55.816;37.036;2023-03-20T08:24:38;99777.50;;;6.90;44.96
72798;BME280;61084;55.816;37.036;2023-03-20T08:27:04;99771.06;;;7.02;45.01
72798;BME280;61084;55.816;37.036;2023-03-20T08:29:30;99770.50;;;7.18;45.13
72798;BME280;61084;55.816;37.036;2023-03-20T08:31:57;99764.88;;;7.30;44.56
72798;BME280;61084;55.816;37.036;2023-03-20T08:34:22;99766.25;;;7.40;44.37
72798;BME280;61084;55.816;37.036;2023-03-20T08:36:48;99764.13;;;7.51;44.28
72798;BME280;61084;55.816;37.036;2023-03-20T08:39:14;99764.72;;;7.59;43.91
72798;BME280;61084;55.816;37.036;2023-03-20T08:41:40;99763.44;;;7.71;43.69
72798;BME280;61084;55.816;37.036;2023-03-20T08:44:11;99759.63;;;7.80;43.43
72798;BME280;61084;55.816;37.036;2023-03-20T08:46:37;99752.31;;;7.89;43.07
72798;BME280;61084;55.816;37.036;2023-03-20T08:49:04;99755.44;;;7.99;42.82
72798;BME280;61084;55.816;37.036;2023-03-20T08:51:30;99755.78;;;8.13;42.65
72798;BME280;61084;55.816;37.036;2023-03-20T08:53:56;99748.50;;;8.21;42.01
72798;BME280;61084;55.816;37.036;2023-03-20T08:56:22;99757.63;;;8.34;42.65
72798;BME280;61084;55.816;37.036;2023-03-20T08:58:47;99754.53;;;8.46;42.00
72798;BME280;61084;55.816;37.036;2023-03-20T09:01:13;99755.91;;;8.56;42.34
72798;BME280;61084;55.816;37.036;2023-03-20T09:03:39;99749.50;;;8.63;41.45
72798;BME280;61084;55.816;37.036;2023-03-20T09:06:07;99739.75;;;8.67;41.83
72798;BME280;61084;55.816;37.036;2023-03-20T09:08:34;99741.28;;;8.72;42.40
72798;BME280;61084;55.816;37.036;2023-03-20T09:11:00;99734.97;;;8.78;41.48
72798;BME280;61084;55.816;37.036;2023-03-20T09:13:26;99737.94;;;8.90;41.73
72798;BME280;61084;55.816;37.036;2023-03-20T09:15:53;99729.97;;;8.93;41.28
72798;BME280;61084;55.816;37.036;2023-03-20T09:18:19;99724.38;;;9.01;41.61
72798;BME280;61084;55.816;37.036;2023-03-20T09:20:48;99723.16;;;9.09;40.76
72798;BME280;61084;55.816;37.036;2023-03-20T09:23:14;99723.44;;;9.24;41.31
72798;BME280;61084;55.816;37.036;2023-03-20T09:25:40;99725.47;;;9.37;40.99
72798;BME280;61084;55.816;37.036;2023-03-20T09:28:06;99718.06;;;9.47;40.42
72798;BME280;61084;55.816;37.036;2023-03-20T09:30:32;99720.56;;;9.50;40.40
72798;BME280;61084;55.816;37.036;2023-03-20T09:32:58;99720.38;;;9.54;40.16
72798;BME280;61084;55.816;37.036;2023-03-20T09:35:23;99716.22;;;9.69;40.28
72798;BME280;61084;55.816;37.036;2023-03-20T09:37:49;99717.38;;;9.82;40.91
72798;BME280;61084;55.816;37.036;2023-03-20T09:40:30;99712.56;;;9.92;40.06
72798;BME280;61084;55.816;37.036;2023-03-20T09:43:16;99705.28;;;9.98;39.70
72798;BME280;61084;55.816;37.036;2023-03-20T09:48:39;99701.13;;;10.13;40.21
72798;BME280;61084;55.816;37.036;2023-03-20T09:51:35;99694.72;;;10.18;39.16
72798;BME280;61084;55.816;37.036;2023-03-20T09:54:41;99692.66;;;10.25;38.29
72798;BME280;61084;55.816;37.036;2023-03-20T09:57:40;99692.25;;;10.34;38.10
72798;BME280;61084;55.816;37.036;2023-03-20T10:00:13;99692.81;;;10.40;38.50
72798;BME280;61084;55.816;37.036;2023-03-20T10:02:47;99687.97;;;10.50;37.87
72798;BME280;61084;55.816;37.036;2023-03-20T10:07:43;99686.47;;;10.63;37.87
72798;BME280;61084;55.816;37.036;2023-03-20T10:10:12;99681.13;;;10.65;37.65
72798;BME280;61084;55.816;37.036;2023-03-20T10:13:02;99677.28;;;10.72;36.90
72798;BME280;61084;55.816;37.036;2023-03-20T10:18:23;99668.78;;;10.84;37.43
72798;BME280;61084;55.816;37.036;2023-03-20T10:20:59;99671.81;;;10.93;38.77
72798;BME280;61084;55.816;37.036;2023-03-20T10:23:35;99672.28;;;11.01;38.28
72798;BME280;61084;55.816;37.036;2023-03-20T10:26:10;99665.16;;;11.03;36.46
72798;BME280;61084;55.816;37.036;2023-03-20T10:28:45;99657.75;;;11.11;38.17
72798;BME280;61084;55.816;37.036;2023-03-20T10:37:09;99648.59;;;11.35;36.61
72798;BME280;61084;55.816;37.036;2023-03-20T10:42:56;99646.31;;;11.62;35.96
72798;BME280;61084;55.816;37.036;2023-03-20T10:45:43;99642.56;;;11.68;35.59
72798;BME280;61084;55.816;37.036;2023-03-20T10:48:16;99646.47;;;11.76;35.75
72798;BME280;61084;55.816;37.036;2023-03-20T10:50:49;99645.53;;;11.77;35.04
72798;BME280;61084;55.816;37.036;2023-03-20T10:53:36;99633.84;;;11.83;33.34
72798;BME280;61084;55.816;37.036;2023-03-20T10:56:09;99637.13;;;11.86;34.58
72798;BME280;61084;55.816;37.036;2023-03-20T10:58:38;99632.31;;;11.94;36.03
72798;BME280;61084;55.816;37.036;2023-03-20T11:01:09;99625.78;;;12.01;34.97
72798;BME280;61084;55.816;37.036;2023-03-20T11:03:35;99620.88;;;12.11;34.57
72798;BME280;61084;55.816;37.036;2023-03-20T11:06:26;99628.31;;;12.19;33.18
72798;BME280;61084;55.816;37.036;2023-03-20T11:08:54;99623.66;;;12.24;34.56
72798;BME280;61084;55.816;37.036;2023-03-20T11:11:33;99614.66;;;12.28;33.83
72798;BME280;61084;55.816;37.036;2023-03-20T11:14:18;99620.25;;;12.37;34.11
72798;BME280;61084;55.816;37.036;2023-03-20T11:16:52;99610.50;;;12.39;33.42
72798;BME280;61084;55.816;37.036;2023-03-20T11:19:19;99613.69;;;12.44;33.56
72798;BME280;61084;55.816;37.036;2023-03-20T11:21:48;99611.47;;;12.52;34.10
72798;BME280;61084;55.816;37.036;2023-03-20T11:24:33;99616.28;;;12.60;33.61
72798;BME280;61084;55.816;37.036;2023-03-20T11:27:07;99604.75;;;12.62;34.06
72798;BME280;61084;55.816;37.036;2023-03-20T11:29:33;99606.47;;;12.77;34.54
72798;BME280;61084;55.816;37.036;2023-03-20T11:34:54;99602.56;;;12.84;33.45
72798;BME280;61084;55.816;37.036;2023-03-20T11:37:28;99595.72;;;12.96;34.65
72798;BME280;61084;55.816;37.036;2023-03-20T11:42:26;99593.72;;;13.15;34.18
72798;BME280;61084;55.816;37.036;2023-03-20T11:45:16;99581.56;;;13.13;32.77
72798;BME280;61084;55.816;37.036;2023-03-20T11:47:50;99583.91;;;13.17;33.84
72798;BME280;61084;55.816;37.036;2023-03-20T11:50:40;99572.25;;;13.21;33.56
72798;BME280;61084;55.816;37.036;2023-03-20T11:53:39;99565.28;;;13.34;33.71
72798;BME280;61084;55.816;37.036;2023-03-20T11:56:26;99563.75;;;13.44;34.01
72798;BME280;61084;55.816;37.036;2023-03-20T11:59:02;99553.69;;;13.51;33.87
72798;BME280;61084;55.816;37.036;2023-03-20T12:01:39;99552.81;;;13.65;33.91
72798;BME280;61084;55.816;37.036;2023-03-20T12:04:13;99550.53;;;13.73;33.77
72798;BME280;61084;55.816;37.036;2023-03-20T12:06:54;99560.72;;;13.79;33.80
72798;BME280;61084;55.816;37.036;2023-03-20T12:09:30;99549.22;;;13.80;33.43
72798;BME280;61084;55.816;37.036;2023-03-20T12:12:23;99546.00;;;13.89;32.88
72798;BME280;61084;55.816;37.036;2023-03-20T12:15:07;99538.72;;;13.92;33.34
72798;BME280;61084;55.816;37.036;2023-03-20T12:18:00;99538.53;;;13.95;33.45
72798;BME280;61084;55.816;37.036;2023-03-20T12:25:52;99527.16;;;14.07;32.86
72798;BME280;61084;55.816;37.036;2023-03-20T12:31:20;99531.66;;;14.19;33.72
72798;BME280;61084;55.816;37.036;2023-03-20T12:36:48;99525.19;;;14.38;33.23
72798;BME280;61084;55.816;37.036;2023-03-20T12:39:18;99517.31;;;14.50;33.30
72798;BME280;61084;55.816;37.036;2023-03-20T12:47:36;99511.59;;;14.44;32.80
72798;BME280;61084;55.816;37.036;2023-03-20T12:55:20;99503.66;;;14.31;33.14
72798;BME280;61084;55.816;37.036;2023-03-20T12:58:00;99495.50;;;14.34;33.04
72798;BME280;61084;55.816;37.036;2023-03-20T13:00:39;99497.22;;;14.35;33.50
72798;BME280;61084;55.816;37.036;2023-03-20T13:06:13;99489.16;;;14.37;32.76
72798;BME280;61084;55.816;37.036;2023-03-20T13:09:17;99491.81;;;14.37;32.97
72798;BME280;61084;55.816;37.036;2023-03-20T13:14:43;99486.34;;;14.52;33.44
72798;BME280;61084;55.816;37.036;2023-03-20T13:17:20;99482.44;;;14.58;33.29
72798;BME280;61084;55.816;37.036;2023-03-20T13:20:04;99480.53;;;14.60;33.72
72798;BME280;61084;55.816;37.036;2023-03-20T13:25:50;99472.41;;;14.50;32.43
72798;BME280;61084;55.816;37.036;2023-03-20T13:28:29;99474.06;;;14.39;32.83
72798;BME280;61084;55.816;37.036;2023-03-20T13:33:53;99463.50;;;14.12;32.82
72798;BME280;61084;55.816;37.036;2023-03-20T13:39:23;99459.47;;;13.94;32.46
72798;BME280;61084;55.816;37.036;2023-03-20T13:41:52;99463.63;;;13.84;33.46
72798;BME280;61084;55.816;37.036;2023-03-20T13:44:21;99460.66;;;13.76;33.50
72798;BME280;61084;55.816;37.036;2023-03-20T13:46:52;99465.38;;;13.71;33.60
72798;BME280;61084;55.816;37.036;2023-03-20T13:49:36;99465.97;;;13.61;33.34
72798;BME280;61084;55.816;37.036;2023-03-20T13:52:21;99460.56;;;13.50;33.33
72798;BME280;61084;55.816;37.036;2023-03-20T13:55:23;99453.22;;;13.41;33.19
72798;BME280;61084;55.816;37.036;2023-03-20T13:58:33;99458.50;;;13.27;33.41
72798;BME280;61084;55.816;37.036;2023-03-20T14:01:35;99454.88;;;13.16;33.49
72798;BME280;61084;55.816;37.036;2023-03-20T14:04:08;99444.03;;;13.06;33.68
72798;BME280;61084;55.816;37.036;2023-03-20T14:06:50;99445.22;;;13.01;33.65
72798;BME280;61084;55.816;37.036;2023-03-20T14:09:34;99437.06;;;12.91;33.74
72798;BME280;61084;55.816;37.036;2023-03-20T14:12:04;99434.81;;;12.85;34.08
72798;BME280;61084;55.816;37.036;2023-03-20T14:14:39;99436.22;;;12.76;33.88
72798;BME280;61084;55.816;37.036;2023-03-20T14:19:33;99437.06;;;12.63;34.40
72798;BME280;61084;55.816;37.036;2023-03-20T14:22:00;99435.44;;;12.60;34.50
72798;BME280;61084;55.816;37.036;2023-03-20T14:24:26;99432.81;;;12.60;34.64
72798;BME280;61084;55.816;37.036;2023-03-20T14:26:59;99425.34;;;12.53;34.50
72798;BME280;61084;55.816;37.036;2023-03-20T14:40:28;99421.13;;;12.22;34.21
72798;BME280;61084;55.816;37.036;2023-03-20T14:46:01;99420.41;;;12.04;34.55
72798;BME280;61084;55.816;37.036;2023-03-20T14:48:36;99415.78;;;11.94;34.26
72798;BME280;61084;55.816;37.036;2023-03-20T14:51:36;99413.56;;;11.86;34.22
72798;BME280;61084;55.816;37.036;2023-03-20T14:54:27;99420.38;;;11.75;34.23
72798;BME280;61084;55.816;37.036;2023-03-20T14:56:54;99414.78;;;11.65;34.68
72798;BME280;61084;55.816;37.036;2023-03-20T14:59:23;99416.47;;;11.51;34.31
72798;BME280;61084;55.816;37.036;2023-03-20T15:01:56;99413.34;;;11.44;34.35
72798;BME280;61084;55.816;37.036;2023-03-20T15:04:39;99407.94;;;11.31;34.20
72798;BME280;61084;55.816;37.036;2023-03-20T15:09:49;99403.78;;;11.12;35.34
72798;BME280;61084;55.816;37.036;2023-03-20T15:12:19;99396.41;;;11.03;35.30
72798;BME280;61084;55.816;37.036;2023-03-20T15:14:55;99394.38;;;10.92;35.61
72798;BME280;61084;55.816;37.036;2023-03-20T15:20:05;99402.31;;;10.75;35.62